createdAt,value
2023-03-06T00:03:19.857Z,24.64
2023-03-06T00:07:19.857Z,24.62
2023-03-06T00:11:19.898Z,24.63
2023-03-06T00:15:19.988Z,24.63
2023-03-06T00:19:19.983Z,24.60
2023-03-06T00:23:20.101Z,24.63
2023-03-06T00:27:20.084Z,24.63
2023-03-06T00:31:20.195Z,24.60
2023-03-06T00:35:20.274Z,24.59
2023-03-06T00:39:20.282Z,24.60
2023-03-06T00:43:20.327Z,24.57
2023-03-06T00:47:20.404Z,24.59
2023-03-06T00:51:20.421Z,24.57
2023-03-06T00:55:20.509Z,24.57
2023-03-06T00:59:20.548Z,24.57
2023-03-06T01:03:20.562Z,24.56
2023-03-06T01:07:20.652Z,24.56
2023-03-06T01:11:20.660Z,24.57
2023-03-06T01:15:20.747Z,24.53
2023-03-06T01:19:20.833Z,24.52
2023-03-06T01:23:20.893Z,24.53
2023-03-06T01:27:20.896Z,24.53
2023-03-06T01:31:20.990Z,24.52
2023-03-06T01:35:21.128Z,24.53
2023-03-06T01:39:21.179Z,24.52
2023-03-06T01:43:21.278Z,24.53
2023-03-06T01:47:21.411Z,24.53
2023-03-06T01:51:21.498Z,24.50
2023-03-06T01:55:21.608Z,24.52
2023-03-06T01:59:21.745Z,24.52
2023-03-06T02:03:21.849Z,24.52
2023-03-06T02:07:21.916Z,24.50
2023-03-06T02:11:22.090Z,24.50
2023-03-06T02:15:22.190Z,24.49
2023-03-06T02:19:22.295Z,24.50
2023-03-06T02:23:22.402Z,24.50
2023-03-06T02:27:22.481Z,24.49
2023-03-06T02:31:22.579Z,24.50
2023-03-06T02:35:22.824Z,24.47
2023-03-06T02:39:22.796Z,24.44
2023-03-06T02:43:22.890Z,24.49
2023-03-06T02:47:22.985Z,24.47
2023-03-06T02:51:23.083Z,24.46
2023-03-06T02:55:23.173Z,24.47
2023-03-06T02:59:23.307Z,24.44
2023-03-06T03:03:23.422Z,24.44
2023-03-06T03:07:23.570Z,24.44
2023-03-06T03:11:23.653Z,24.46
2023-03-06T03:15:23.816Z,24.44
2023-03-06T03:19:23.924Z,24.42
2023-03-06T03:23:24.038Z,24.42
2023-03-06T03:27:24.145Z,24.43
2023-03-06T03:31:24.332Z,24.43
2023-03-06T03:35:24.450Z,24.43
2023-03-06T03:39:24.586Z,24.44
2023-03-06T03:43:24.692Z,24.40
2023-03-06T03:47:24.819Z,24.43
2023-03-06T03:51:24.987Z,24.42
2023-03-06T03:55:25.151Z,24.42
2023-03-06T03:59:25.250Z,24.42
2023-03-06T04:03:25.425Z,24.43
2023-03-06T04:07:25.545Z,24.39
2023-03-06T04:11:25.675Z,24.42
2023-03-06T04:15:25.811Z,24.40
2023-03-06T04:19:25.970Z,24.37
2023-03-06T04:23:26.103Z,24.39
2023-03-06T04:27:26.299Z,24.39
2023-03-06T04:31:26.469Z,24.37
2023-03-06T04:35:26.599Z,24.37
2023-03-06T04:39:26.784Z,24.37
2023-03-06T04:43:26.895Z,24.37
2023-03-06T04:47:27.035Z,24.37
2023-03-06T04:51:27.246Z,24.37
2023-03-06T04:55:27.335Z,24.37
2023-03-06T04:59:27.475Z,24.36
2023-03-06T05:03:27.667Z,24.35
2023-03-06T05:07:27.847Z,24.37
2023-03-06T05:11:28.017Z,24.37
2023-03-06T05:15:28.153Z,24.36
2023-03-06T05:19:28.343Z,24.32
2023-03-06T05:23:28.504Z,24.33
2023-03-06T05:27:28.689Z,24.33
2023-03-06T05:31:28.917Z,24.33
2023-03-06T05:35:29.068Z,24.29
2023-03-06T05:39:29.183Z,24.30
2023-03-06T05:43:29.383Z,24.30
2023-03-06T05:47:29.509Z,24.32
2023-03-06T05:51:29.754Z,24.29
2023-03-06T05:55:29.960Z,24.27
2023-03-06T05:59:30.078Z,24.30
2023-03-06T06:03:30.296Z,24.32
2023-03-06T06:07:30.393Z,24.30
2023-03-06T06:11:30.632Z,24.32
2023-03-06T06:15:30.850Z,24.30
2023-03-06T06:19:30.901Z,24.29
2023-03-06T06:23:31.071Z,24.30
2023-03-06T06:27:31.205Z,24.30
2023-03-06T06:31:31.420Z,24.32
2023-03-06T06:35:31.517Z,24.20
2023-03-06T06:39:31.857Z,23.86
2023-03-06T06:43:31.729Z,23.50
2023-03-06T06:47:31.989Z,23.48
2023-03-06T06:51:31.963Z,23.64
2023-03-06T06:55:32.095Z,23.91
2023-03-06T06:59:32.044Z,24.13
2023-03-06T07:03:32.383Z,24.35
2023-03-06T07:07:32.403Z,24.47
2023-03-06T07:11:32.371Z,24.59
2023-03-06T07:15:32.376Z,24.70
2023-03-06T07:19:31.872Z,24.74
2023-03-06T07:23:31.794Z,24.84
2023-03-06T07:27:31.933Z,24.94
2023-03-06T07:31:31.780Z,25.03
2023-03-06T07:35:32.001Z,25.06
2023-03-06T07:39:31.660Z,25.14
2023-03-06T07:43:31.641Z,25.15
2023-03-06T07:47:31.620Z,25.24
2023-03-06T07:51:31.573Z,25.25
2023-03-06T07:55:31.661Z,25.32
2023-03-06T07:59:31.865Z,25.31
2023-03-06T08:03:32.016Z,25.37
2023-03-06T08:07:32.144Z,25.42
2023-03-06T08:11:32.291Z,25.45
2023-03-06T08:15:32.433Z,25.46
2023-03-06T08:19:32.587Z,25.45
2023-03-06T08:23:32.768Z,25.38
2023-03-06T08:27:32.865Z,25.51
2023-03-06T08:31:33.491Z,24.74
2023-03-06T08:35:33.221Z,23.71
2023-03-06T08:39:33.427Z,23.71
2023-03-06T08:43:33.440Z,23.96
2023-03-06T08:47:33.977Z,24.26
2023-03-06T08:51:33.672Z,24.49
2023-03-06T08:55:33.977Z,24.69
2023-03-06T08:59:33.941Z,24.80
2023-03-06T09:03:33.784Z,25.00
2023-03-06T09:07:33.920Z,25.10
2023-03-06T09:11:33.808Z,25.15
2023-03-06T09:15:33.687Z,25.24
2023-03-06T09:19:33.650Z,25.32
2023-03-06T09:23:33.965Z,25.34
2023-03-06T09:27:33.970Z,25.24
2023-03-06T09:31:33.782Z,24.90
2023-03-06T09:35:33.543Z,24.53
2023-03-06T09:39:33.937Z,24.25
2023-03-06T09:43:33.518Z,23.93
2023-03-06T09:47:33.366Z,24.02
2023-03-06T09:51:33.418Z,24.08
2023-03-06T09:55:33.439Z,24.37
2023-03-06T09:59:33.491Z,24.66
2023-03-06T10:03:33.962Z,24.97
2023-03-06T10:07:33.827Z,25.18
2023-03-06T10:11:34.449Z,25.37
2023-03-06T10:15:34.528Z,25.49
2023-03-06T10:19:34.327Z,25.37
2023-03-06T10:23:34.542Z,25.18
2023-03-06T10:27:34.494Z,25.04
2023-03-06T10:31:35.003Z,24.84
2023-03-06T10:35:34.992Z,24.63
2023-03-06T10:39:34.826Z,24.74
2023-03-06T10:43:36.493Z,24.98
2023-03-06T10:47:35.017Z,25.22
2023-03-06T10:51:35.160Z,25.40
2023-03-06T10:55:35.190Z,25.60
2023-03-06T10:59:35.213Z,25.81
2023-03-06T11:03:35.256Z,25.98
2023-03-06T11:07:35.276Z,25.99
2023-03-06T11:11:43.360Z,25.96
2023-03-06T11:15:35.999Z,25.95
2023-03-06T11:19:35.296Z,25.89
2023-03-06T11:23:35.520Z,25.88
2023-03-06T11:27:35.549Z,25.85
2023-03-06T11:31:35.584Z,25.72
2023-03-06T11:35:35.839Z,25.68
2023-03-06T11:39:35.864Z,25.84
2023-03-06T11:43:36.146Z,26.03
2023-03-06T11:47:37.032Z,26.18
2023-03-06T11:51:36.347Z,26.38
2023-03-06T11:55:36.434Z,26.43
2023-03-06T11:59:37.080Z,26.40
2023-03-06T12:03:36.736Z,26.23
2023-03-06T12:07:36.771Z,26.12
2023-03-06T12:11:36.764Z,26.15
2023-03-06T12:15:36.807Z,26.16
2023-03-06T12:19:37.063Z,26.15
2023-03-06T12:23:40.200Z,26.22
2023-03-06T12:27:36.698Z,26.18
2023-03-06T12:31:36.703Z,26.09
2023-03-06T12:35:36.636Z,25.96
2023-03-06T12:39:36.564Z,25.82
2023-03-06T12:43:38.868Z,25.76
2023-03-06T12:47:36.494Z,25.66
2023-03-06T12:51:36.483Z,25.64
2023-03-06T12:55:36.448Z,25.66
2023-03-06T12:59:36.368Z,25.60
2023-03-06T13:03:36.399Z,25.35
2023-03-06T13:07:36.330Z,24.94
2023-03-06T13:11:36.292Z,24.87
2023-03-06T13:15:36.338Z,24.89
2023-03-06T13:19:36.196Z,25.07
2023-03-06T13:23:36.161Z,25.32
2023-03-06T13:27:36.142Z,25.57
2023-03-06T13:31:36.129Z,25.71
2023-03-06T13:35:36.086Z,25.82
2023-03-06T13:39:36.064Z,25.92
2023-03-06T13:43:36.061Z,25.98
2023-03-06T13:47:59.110Z,26.06
2023-03-06T13:51:37.014Z,26.08
2023-03-06T13:55:36.037Z,26.12
2023-03-06T13:59:36.160Z,26.12
2023-03-06T14:03:36.590Z,26.10
2023-03-06T14:07:36.442Z,25.81
2023-03-06T14:11:36.648Z,25.45
2023-03-06T14:15:36.662Z,25.44
2023-03-06T14:19:36.601Z,25.51
2023-03-06T14:23:36.640Z,25.68
2023-03-06T14:27:36.515Z,25.85
2023-03-06T14:31:36.517Z,25.96
2023-03-06T14:35:36.474Z,25.98
2023-03-06T14:39:36.386Z,26.00
2023-03-06T14:43:36.622Z,26.15
2023-03-06T14:47:36.637Z,26.09
2023-03-06T14:51:36.268Z,26.12
2023-03-06T14:55:36.299Z,26.19
2023-03-06T14:59:36.198Z,26.28
2023-03-06T15:03:36.192Z,26.28
2023-03-06T15:07:36.221Z,26.30
2023-03-06T15:11:36.378Z,26.26
2023-03-06T15:15:36.604Z,26.29
2023-03-06T15:19:36.359Z,26.28
2023-03-06T15:23:36.238Z,26.30
2023-03-06T15:27:36.196Z,26.26
2023-03-06T15:31:36.237Z,26.20
2023-03-06T15:35:37.934Z,26.25
2023-03-06T15:39:36.125Z,26.25
2023-03-06T15:43:36.254Z,26.18
2023-03-06T15:47:36.485Z,26.20
2023-03-06T15:51:36.418Z,26.19
2023-03-06T15:55:36.373Z,26.18
2023-03-06T15:59:36.393Z,26.13
2023-03-06T16:03:36.400Z,26.10
2023-03-06T16:07:36.255Z,26.09
2023-03-06T16:11:43.771Z,26.09
2023-03-06T16:15:37.208Z,26.05
2023-03-06T16:19:36.135Z,26.02
2023-03-06T16:23:36.121Z,25.99
2023-03-06T16:27:36.076Z,25.96
2023-03-06T16:31:36.010Z,25.98
2023-03-06T16:35:36.065Z,25.95
2023-03-06T16:39:36.237Z,25.92
2023-03-06T16:43:36.057Z,25.93
2023-03-06T16:47:36.060Z,25.86
2023-03-06T16:51:36.066Z,25.86
2023-03-06T16:55:36.086Z,25.85
2023-03-06T16:59:36.153Z,25.82
2023-03-06T17:03:36.193Z,25.76
2023-03-06T17:07:36.248Z,25.75
2023-03-06T17:11:36.680Z,25.71
2023-03-06T17:15:36.408Z,25.66
2023-03-06T17:19:36.425Z,25.62
2023-03-06T17:23:36.553Z,25.57
2023-03-06T17:27:36.653Z,25.51
2023-03-06T17:31:36.795Z,25.52
2023-03-06T17:35:36.887Z,25.48
2023-03-06T17:39:36.974Z,25.48
2023-03-06T17:43:37.122Z,25.45
2023-03-06T17:47:37.242Z,25.44
2023-03-06T17:51:37.374Z,25.41
2023-03-06T17:55:37.525Z,25.35
2023-03-06T17:59:37.691Z,25.37
2023-03-06T18:03:38.728Z,25.32
2023-03-06T18:07:38.047Z,25.30
2023-03-06T18:11:38.243Z,25.28
2023-03-06T18:15:38.458Z,25.28
2023-03-06T18:19:38.646Z,25.27
2023-03-06T18:23:38.883Z,25.22
2023-03-06T18:27:39.049Z,25.22
2023-03-06T18:31:39.337Z,25.20
2023-03-06T18:35:39.297Z,25.20
2023-03-06T18:39:39.206Z,25.18
2023-03-06T18:43:39.174Z,25.18
2023-03-06T18:47:39.158Z,25.17
2023-03-06T18:51:39.075Z,25.20
2023-03-06T18:55:39.022Z,25.15
2023-03-06T18:59:39.021Z,25.15
2023-03-06T19:03:38.942Z,25.14
2023-03-06T19:07:38.933Z,25.13
2023-03-06T19:11:39.051Z,25.11
2023-03-06T19:15:38.977Z,25.10
2023-03-06T19:19:38.997Z,25.10
2023-03-06T19:23:38.930Z,25.09
2023-03-06T19:27:38.869Z,25.06
2023-03-06T19:31:38.896Z,25.04
2023-03-06T19:35:38.827Z,25.04
2023-03-06T19:39:38.787Z,24.98
2023-03-06T19:43:38.779Z,25.01
2023-03-06T19:47:38.674Z,25.01
2023-03-06T19:51:38.691Z,25.01
2023-03-06T19:55:39.286Z,25.00
2023-03-06T19:59:38.925Z,25.00
2023-03-06T20:03:38.910Z,24.95
2023-03-06T20:07:39.039Z,24.97
2023-03-06T20:11:39.166Z,24.95
2023-03-06T20:15:39.262Z,24.93
2023-03-06T20:19:39.328Z,24.91
2023-03-06T20:23:39.444Z,24.94
2023-03-06T20:27:39.406Z,24.94
2023-03-06T20:31:39.480Z,24.91
2023-03-06T20:35:39.555Z,24.90
2023-03-06T20:39:39.508Z,24.89
2023-03-06T20:43:39.516Z,24.87
2023-03-06T20:47:39.485Z,24.86
2023-03-06T20:51:39.466Z,24.87
2023-03-06T20:55:39.450Z,24.87
2023-03-06T20:59:39.438Z,24.86
2023-03-06T21:03:39.459Z,24.81
2023-03-06T21:07:39.422Z,24.86
2023-03-06T21:11:39.407Z,24.84
2023-03-06T21:15:39.450Z,24.83
2023-03-06T21:19:39.411Z,24.83
2023-03-06T21:23:39.409Z,24.81
2023-03-06T21:27:39.484Z,24.79
2023-03-06T21:31:39.428Z,24.80
2023-03-06T21:35:39.434Z,24.80
2023-03-06T21:39:39.392Z,24.79
2023-03-06T21:43:39.378Z,24.79
2023-03-06T21:47:39.388Z,24.79
2023-03-06T21:51:39.380Z,24.74
2023-03-06T21:55:39.357Z,24.77
2023-03-06T21:59:39.438Z,24.76
2023-03-06T22:03:39.392Z,24.73
2023-03-06T22:07:39.392Z,24.74
2023-03-06T22:11:39.408Z,24.71
2023-03-06T22:15:39.431Z,24.74
2023-03-06T22:19:39.410Z,24.73
2023-03-06T22:23:39.427Z,24.74
2023-03-06T22:27:39.456Z,24.70
2023-03-06T22:31:40.415Z,24.73
2023-03-06T22:35:39.555Z,24.70
2023-03-06T22:39:39.596Z,24.69
2023-03-06T22:43:39.640Z,24.69
2023-03-06T22:47:39.667Z,24.69
2023-03-06T22:51:39.710Z,24.69
2023-03-06T22:55:39.798Z,24.67
2023-03-06T22:59:39.874Z,24.66
2023-03-06T23:03:39.899Z,24.66
2023-03-06T23:07:39.923Z,24.66
2023-03-06T23:11:40.051Z,24.64
2023-03-06T23:15:40.095Z,24.64
2023-03-06T23:19:40.105Z,24.62
2023-03-06T23:23:40.165Z,24.63
2023-03-06T23:27:40.248Z,24.64
2023-03-06T23:31:40.297Z,24.63
2023-03-06T23:35:40.415Z,24.60
2023-03-06T23:39:40.456Z,24.63
2023-03-06T23:43:40.867Z,24.60
2023-03-06T23:47:40.575Z,24.59
2023-03-06T23:51:40.709Z,24.59
2023-03-06T23:55:40.750Z,24.60
2023-03-06T23:59:40.804Z,24.59
